Time;durP1;ratioP1;P1;durP2;ratioP2;P2;SDS_P1;SDS_P2;PMS_P1;PMS_P2;Temp;Humidity;BMP_temperature;BMP_pressure;BME280_temperature;BME280_humidity;BME280_pressure;Samples;Min_cycle;Max_cycle;Signal;HPM_P1;HPM_P2
2022/01/25 00:08:27;;;;;;;53.13;32.53;;;5.40;99.90;;;;;;5050008;28;20047;-68
2022/01/25 00:24:21;;;;;;;56.45;34.13;;;5.30;99.90;;;;;;5048379;28;20124;-69
2022/01/25 00:27:03;;;;;;;55.00;33.20;;;5.30;99.90;;;;;;5039069;28;20041;-67
2022/01/25 00:32:10;;;;;;;56.63;33.47;;;5.30;99.90;;;;;;5047740;28;20107;-68
2022/01/25 00:34:36;;;;;;;56.35;33.47;;;5.30;99.90;;;;;;5039490;28;20045;-69
2022/01/25 00:37:01;;;;;;;56.10;33.38;;;5.30;99.90;;;;;;5040869;28;20364;-67
2022/01/25 00:39:27;;;;;;;53.80;33.70;;;5.40;99.90;;;;;;5044771;28;20045;-67
2022/01/25 00:41:52;;;;;;;56.55;35.05;;;5.30;99.90;;;;;;5044838;28;20033;-67
2022/01/25 00:44:18;;;;;;;52.55;34.03;;;5.40;99.90;;;;;;5042929;28;20045;-67
2022/01/25 00:46:44;;;;;;;57.58;34.60;;;5.40;99.90;;;;;;5038671;28;20065;-68
2022/01/25 00:49:14;;;;;;;54.53;33.95;;;5.40;99.90;;;;;;5049873;28;20032;-67
2022/01/25 00:56:49;;;;;;;55.08;33.38;;;5.30;99.90;;;;;;5042201;28;20132;-67
2022/01/25 00:59:40;;;;;;;54.55;33.17;;;5.30;99.90;;;;;;5044931;28;20057;-67
2022/01/25 01:02:09;;;;;;;55.75;32.58;;;5.30;99.90;;;;;;5042832;28;20048;-68
2022/01/25 01:04:35;;;;;;;53.75;32.47;;;5.30;99.90;;;;;;5045794;28;20049;-67
2022/01/25 01:07:05;;;;;;;52.92;33.15;;;5.30;99.90;;;;;;5033927;28;20353;-67
2022/01/25 01:09:33;;;;;;;54.80;33.60;;;5.30;99.90;;;;;;5043767;28;20429;-67
2022/01/25 01:12:07;;;;;;;53.10;32.45;;;5.40;99.90;;;;;;5048541;28;20083;-68
2022/01/25 01:31:14;;;;;;;57.70;33.70;;;5.20;99.90;;;;;;5036590;28;20075;-68
2022/01/25 01:44:27;;;;;;;56.53;34.25;;;5.10;99.90;;;;;;5040548;28;20045;-69
2022/01/25 01:47:06;;;;;;;56.22;33.60;;;5.10;99.90;;;;;;5036276;28;20050;-67
2022/01/25 01:49:39;;;;;;;57.08;33.35;;;5.20;99.90;;;;;;5041715;28;20041;-69
2022/01/25 01:52:06;;;;;;;55.70;33.58;;;5.20;99.90;;;;;;5038147;28;20343;-67
2022/01/25 01:54:32;;;;;;;54.35;32.95;;;5.20;99.90;;;;;;5048811;28;20045;-68
2022/01/25 01:56:57;;;;;;;55.25;34.72;;;5.20;99.90;;;;;;5038882;28;20037;-69
2022/01/25 01:59:23;;;;;;;55.97;33.85;;;5.20;99.90;;;;;;5041545;28;20045;-67
2022/01/25 02:01:48;;;;;;;57.35;34.42;;;5.20;99.90;;;;;;5034572;28;20080;-68
2022/01/25 02:04:17;;;;;;;54.42;33.78;;;5.30;99.90;;;;;;5036839;28;20354;-68
2022/01/25 02:06:42;;;;;;;55.05;32.45;;;5.30;99.90;;;;;;5030482;28;20060;-68
2022/01/25 02:09:10;;;;;;;53.15;32.58;;;5.30;99.90;;;;;;5044531;28;20364;-68
2022/01/25 02:11:36;;;;;;;54.08;31.83;;;5.30;99.90;;;;;;5045130;28;20140;-68
2022/01/25 02:14:06;;;;;;;52.75;32.45;;;5.30;99.90;;;;;;5036529;28;20041;-68
2022/01/25 02:24:44;;;;;;;50.38;30.27;;;5.20;99.90;;;;;;5042967;28;20400;-68
2022/01/25 02:27:10;;;;;;;52.55;30.52;;;5.20;99.90;;;;;;5036844;28;20139;-69
2022/01/25 02:29:35;;;;;;;56.35;31.70;;;5.20;99.90;;;;;;5035330;28;20473;-68
2022/01/25 02:32:02;;;;;;;55.80;31.42;;;5.30;99.90;;;;;;5044730;28;20041;-68
2022/01/25 02:34:28;;;;;;;52.60;31.15;;;5.20;99.90;;;;;;5041080;28;20061;-69
2022/01/25 02:36:58;;;;;;;51.75;31.17;;;5.20;99.90;;;;;;5039636;28;20120;-68
2022/01/25 02:39:24;;;;;;;52.42;30.63;;;5.30;99.90;;;;;;5037219;28;20163;-67
2022/01/25 02:41:52;;;;;;;59.30;33.67;;;5.30;99.90;;;;;;5043309;28;20148;-69
2022/01/25 02:44:23;;;;;;;55.30;33.42;;;5.30;99.90;;;;;;5046761;28;20148;-69
2022/01/25 02:49:17;;;;;;;54.47;32.30;;;5.30;99.90;;;;;;5036825;28;20052;-69
2022/01/25 02:51:46;;;;;;;56.40;32.22;;;5.20;99.90;;;;;;5045129;28;20113;-68
2022/01/25 02:54:13;;;;;;;54.97;33.00;;;5.20;99.90;;;;;;5040325;28;20101;-69
2022/01/25 02:56:42;;;;;;;53.22;31.90;;;5.20;99.90;;;;;;5053012;28;20094;-69
2022/01/25 02:59:09;;;;;;;58.70;32.63;;;5.20;99.90;;;;;;5048398;28;20056;-69
2022/01/25 03:01:36;;;;;;;54.35;31.48;;;5.20;99.90;;;;;;5047303;28;20045;-69
2022/01/25 03:04:03;;;;;;;53.78;31.65;;;5.30;99.90;;;;;;5041873;28;20111;-67
2022/01/25 03:06:28;;;;;;;58.78;33.08;;;5.20;99.90;;;;;;5049831;28;20060;-68
2022/01/25 03:08:54;;;;;;;55.80;32.22;;;5.20;99.90;;;;;;5042464;28;20042;-69
2022/01/25 03:11:22;;;;;;;54.58;32.25;;;5.10;99.90;;;;;;5041139;28;20121;-69
2022/01/25 03:13:53;;;;;;;54.10;31.20;;;5.00;99.90;;;;;;5040237;28;20045;-68
2022/01/25 03:16:31;;;;;;;53.22;30.42;;;5.10;99.90;;;;;;5043323;28;20052;-69
2022/01/25 03:19:01;;;;;;;57.75;32.15;;;5.10;99.90;;;;;;5044216;28;20101;-68
2022/01/25 03:23:53;;;;;;;54.47;32.22;;;5.10;99.90;;;;;;5044206;28;20052;-68
2022/01/25 03:26:21;;;;;;;53.35;31.42;;;5.10;99.90;;;;;;5049481;28;20395;-67
2022/01/25 03:28:48;;;;;;;52.17;30.42;;;5.10;99.90;;;;;;5048383;28;20354;-68
2022/01/25 03:31:14;;;;;;;53.75;30.50;;;5.10;99.90;;;;;;5042960;28;20503;-68
2022/01/25 03:33:40;;;;;;;60.78;34.90;;;5.20;99.90;;;;;;5043438;28;20191;-67
2022/01/25 03:36:10;;;;;;;58.47;32.67;;;5.10;99.90;;;;;;5034262;28;20121;-68
2022/01/25 03:38:37;;;;;;;59.40;33.28;;;5.10;99.90;;;;;;5042934;28;20041;-68
2022/01/25 03:41:08;;;;;;;55.75;32.97;;;5.10;99.90;;;;;;5049935;28;20041;-69
2022/01/25 03:43:35;;;;;;;60.45;33.88;;;5.10;99.90;;;;;;5037476;28;20049;-68
2022/01/25 03:46:08;;;;;;;55.95;33.08;;;5.10;99.90;;;;;;5040167;28;20104;-67
2022/01/25 03:50:59;;;;;;;57.45;32.72;;;5.10;99.90;;;;;;5050843;28;20045;-68
2022/01/25 03:53:24;;;;;;;59.05;33.60;;;5.10;99.90;;;;;;5051486;28;20037;-68
2022/01/25 03:55:50;;;;;;;56.92;33.72;;;5.10;99.90;;;;;;5053385;28;20088;-68
2022/01/25 03:58:16;;;;;;;59.10;34.30;;;5.10;99.90;;;;;;5050111;28;20055;-68
2022/01/25 04:00:43;;;;;;;55.38;32.55;;;5.10;99.90;;;;;;5043041;28;20119;-68
2022/01/25 04:03:27;;;;;;;55.58;32.80;;;5.00;99.90;;;;;;5042415;28;20121;-68
2022/01/25 04:05:54;;;;;;;56.40;32.55;;;5.00;99.90;;;;;;5049145;28;20109;-68
2022/01/25 04:08:20;;;;;;;57.33;32.70;;;5.00;99.90;;;;;;5043650;28;20060;-68
2022/01/25 04:10:47;;;;;;;63.72;34.53;;;5.00;99.90;;;;;;5031380;28;20052;-68
2022/01/25 04:13:13;;;;;;;58.92;33.65;;;5.00;99.90;;;;;;5042077;28;20061;-69
2022/01/25 04:15:41;;;;;;;56.05;32.28;;;5.00;99.90;;;;;;5045978;28;20535;-68
2022/01/25 04:21:04;;;;;;;60.45;33.45;;;5.00;99.90;;;;;;5045418;28;20049;-68
2022/01/25 04:26:13;;;;;;;58.22;31.75;;;4.90;99.90;;;;;;5035461;28;20049;-68
2022/01/25 04:28:39;;;;;;;58.03;32.80;;;4.90;99.90;;;;;;5038244;28;20372;-68
2022/01/25 04:31:04;;;;;;;54.17;31.70;;;4.90;99.90;;;;;;5044685;28;20049;-68
2022/01/25 04:33:40;;;;;;;65.05;34.88;;;4.90;99.90;;;;;;5045469;28;20061;-67
2022/01/25 04:49:34;;;;;;;58.30;32.60;;;4.90;99.90;;;;;;5046510;28;20049;-68
2022/01/25 04:52:07;;;;;;;56.97;32.33;;;4.90;99.90;;;;;;5036621;28;20178;-68
2022/01/25 05:02:27;;;;;;;55.90;31.55;;;5.00;99.90;;;;;;5039144;28;20165;-68
2022/01/25 05:05:02;;;;;;;61.88;34.33;;;5.00;99.90;;;;;;5038326;28;20056;-69
2022/01/25 05:07:37;;;;;;;56.45;31.77;;;5.00;99.90;;;;;;5033700;28;20056;-68
2022/01/25 05:10:04;;;;;;;57.50;32.60;;;5.00;99.90;;;;;;5037109;28;20051;-68
2022/01/25 05:15:18;;;;;;;58.55;31.65;;;5.00;99.90;;;;;;5040839;28;20057;-69
2022/01/25 05:17:46;;;;;;;57.03;31.85;;;5.00;99.90;;;;;;5047950;28;20088;-68
2022/01/25 05:22:56;;;;;;;60.05;32.15;;;4.90;99.90;;;;;;5040393;28;20080;-68
2022/01/25 05:25:22;;;;;;;57.10;32.05;;;4.90;99.90;;;;;;5046374;28;20065;-68
2022/01/25 05:27:47;;;;;;;61.22;32.88;;;5.00;99.90;;;;;;5042130;28;20132;-68
2022/01/25 05:30:13;;;;;;;60.22;32.85;;;4.90;99.90;;;;;;5047663;28;20050;-69
2022/01/25 05:32:38;;;;;;;58.75;31.27;;;4.90;99.90;;;;;;5044669;28;20032;-68
2022/01/25 05:35:05;;;;;;;59.53;32.45;;;4.80;99.90;;;;;;5046015;28;20037;-68
2022/01/25 05:37:41;;;;;;;56.47;31.77;;;4.90;99.90;;;;;;5040990;28;20068;-68
2022/01/25 05:40:13;;;;;;;56.60;31.40;;;4.80;99.90;;;;;;5047692;28;20137;-69
2022/01/25 05:45:38;;;;;;;56.50;32.47;;;4.90;99.90;;;;;;5039102;28;20433;-68
2022/01/25 05:47:50;;;;;;;57.10;31.50;;;4.80;99.90;;;;;;5034995;28;20103;-68
2022/01/25 05:50:16;;;;;;;58.92;32.67;;;4.80;99.90;;;;;;5038428;28;20048;-68
2022/01/25 05:52:42;;;;;;;58.60;32.20;;;4.80;99.90;;;;;;5036309;28;20052;-67
2022/01/25 05:55:09;;;;;;;58.45;31.92;;;4.80;99.90;;;;;;5044242;28;20044;-68
2022/01/25 05:57:35;;;;;;;59.38;33.30;;;4.80;99.90;;;;;;5039585;28;20471;-69
2022/01/25 06:00:01;;;;;;;56.42;31.38;;;4.80;99.90;;;;;;5042913;28;20041;-70
2022/01/25 06:02:30;;;;;;;60.83;33.58;;;4.80;99.90;;;;;;5040804;28;20068;-68
2022/01/25 06:04:55;;;;;;;58.00;31.15;;;4.90;99.90;;;;;;5045827;28;20045;-68
2022/01/25 06:07:21;;;;;;;55.78;31.38;;;4.90;99.90;;;;;;5036990;28;20090;-69
2022/01/25 06:09:48;;;;;;;56.22;30.40;;;4.90;99.90;;;;;;5041274;28;20123;-67
2022/01/25 06:12:14;;;;;;;57.60;30.73;;;4.80;99.90;;;;;;5039534;28;20108;-68
2022/01/25 06:14:40;;;;;;;60.90;32.58;;;4.90;99.90;;;;;;5035279;28;20053;-67
2022/01/25 06:17:06;;;;;;;58.25;30.83;;;4.90;99.90;;;;;;5042518;28;20083;-67
2022/01/25 06:19:32;;;;;;;57.28;31.33;;;4.90;99.90;;;;;;5042571;28;20126;-68
2022/01/25 06:21:58;;;;;;;63.40;33.10;;;4.90;99.90;;;;;;5041414;28;20572;-67
2022/01/25 06:24:23;;;;;;;58.65;32.13;;;4.80;99.90;;;;;;5043660;28;20101;-68
2022/01/25 06:26:49;;;;;;;57.85;30.90;;;4.80;99.90;;;;;;5049303;28;20033;-68
2022/01/25 06:29:17;;;;;;;61.75;32.38;;;4.80;99.90;;;;;;5044776;28;20037;-68
2022/01/25 06:31:43;;;;;;;61.05;32.15;;;4.80;99.90;;;;;;5048602;28;20123;-69
2022/01/25 06:34:09;;;;;;;58.63;33.20;;;4.70;99.90;;;;;;5046053;28;20128;-68
2022/01/25 06:36:35;;;;;;;58.10;31.80;;;4.70;99.90;;;;;;5048411;28;20445;-69
2022/01/25 06:39:00;;;;;;;61.53;32.33;;;4.70;99.90;;;;;;5044343;28;20060;-69
2022/01/25 06:41:26;;;;;;;60.30;32.22;;;4.80;99.90;;;;;;5043825;28;20095;-68
2022/01/25 06:43:52;;;;;;;59.53;32.65;;;4.70;99.90;;;;;;5048531;28;20496;-68
2022/01/25 06:46:17;;;;;;;58.50;31.80;;;4.80;99.90;;;;;;5049302;28;20143;-67
2022/01/25 06:48:43;;;;;;;61.25;32.08;;;4.80;99.90;;;;;;5057967;28;20464;-69
2022/01/25 06:51:09;;;;;;;62.88;33.55;;;4.90;99.90;;;;;;5067458;28;20123;-68
2022/01/25 06:53:34;;;;;;;61.05;32.15;;;4.90;99.90;;;;;;5068677;28;20127;-68
2022/01/25 06:56:01;;;;;;;61.55;32.58;;;4.90;99.90;;;;;;5060805;28;20045;-68
2022/01/25 06:58:27;;;;;;;57.55;30.85;;;4.90;99.90;;;;;;5066662;28;20579;-68
2022/01/25 07:00:52;;;;;;;56.63;31.15;;;4.90;99.90;;;;;;5068565;28;20186;-68
2022/01/25 07:03:18;;;;;;;59.88;32.38;;;4.90;99.90;;;;;;5067024;28;20061;-69
2022/01/25 07:05:44;;;;;;;61.20;32.53;;;4.90;99.90;;;;;;5054284;28;20068;-68
2022/01/25 07:08:09;;;;;;;59.80;32.33;;;4.90;99.90;;;;;;5048433;28;20118;-68
2022/01/25 07:10:35;;;;;;;64.55;33.40;;;4.90;99.90;;;;;;5048381;28;20510;-68
2022/01/25 07:13:01;;;;;;;64.10;33.95;;;4.90;99.90;;;;;;5045288;28;20553;-68
2022/01/25 07:15:26;;;;;;;59.88;32.03;;;4.90;99.90;;;;;;5047410;28;20048;-68
2022/01/25 07:17:52;;;;;;;63.35;33.30;;;4.90;99.90;;;;;;5047815;28;20152;-68
2022/01/25 07:20:17;;;;;;;59.03;32.83;;;4.90;99.90;;;;;;5047961;28;20599;-68
2022/01/25 07:22:43;;;;;;;60.17;32.92;;;4.90;99.90;;;;;;5047416;28;20041;-69
2022/01/25 07:25:11;;;;;;;61.85;33.10;;;4.90;99.90;;;;;;5048784;28;20102;-68
2022/01/25 07:27:37;;;;;;;60.95;32.72;;;4.90;99.90;;;;;;5047021;28;20037;-68
2022/01/25 07:30:05;;;;;;;61.70;33.50;;;4.80;99.90;;;;;;5046637;28;20095;-68
2022/01/25 07:32:31;;;;;;;61.50;32.78;;;4.80;99.90;;;;;;5047196;28;20164;-68
2022/01/25 07:34:56;;;;;;;60.85;33.80;;;4.80;99.90;;;;;;5046585;28;20127;-68
2022/01/25 07:37:22;;;;;;;61.55;34.05;;;4.70;99.90;;;;;;5062273;28;20094;-68
2022/01/25 07:39:48;;;;;;;62.38;33.63;;;4.70;99.90;;;;;;5068158;28;20550;-68
2022/01/25 07:42:15;;;;;;;62.70;33.97;;;4.80;99.90;;;;;;5067549;28;20460;-69
2022/01/25 07:44:41;;;;;;;62.42;34.33;;;4.80;99.90;;;;;;5067507;28;20040;-68
2022/01/25 07:47:07;;;;;;;64.15;33.72;;;4.80;99.90;;;;;;5071483;28;20032;-68
2022/01/25 07:49:33;;;;;;;64.43;34.25;;;4.90;99.90;;;;;;5068702;28;20087;-69
2022/01/25 07:51:59;;;;;;;65.05;34.90;;;4.90;99.90;;;;;;5058060;28;20069;-69
2022/01/25 07:54:26;;;;;;;64.38;34.15;;;4.80;99.90;;;;;;5050229;28;20060;-68
2022/01/25 07:56:52;;;;;;;60.88;33.88;;;4.80;99.90;;;;;;5051984;28;20090;-69
2022/01/25 07:59:18;;;;;;;63.03;33.30;;;4.80;99.90;;;;;;5053646;28;20075;-69
2022/01/25 08:01:44;;;;;;;63.45;34.38;;;4.80;99.90;;;;;;5050412;28;20072;-68
2022/01/25 08:04:10;;;;;;;62.78;33.58;;;4.80;99.90;;;;;;5050220;28;20055;-68
2022/01/25 08:06:37;;;;;;;62.05;32.97;;;4.80;99.90;;;;;;5050636;28;20132;-68
2022/01/25 08:09:07;;;;;;;63.25;33.13;;;4.80;99.90;;;;;;5050482;28;20045;-68
2022/01/25 08:11:33;;;;;;;65.32;35.15;;;4.80;99.90;;;;;;5051484;28;20037;-68
2022/01/25 08:14:18;;;;;;;64.30;34.10;;;4.80;99.90;;;;;;5048451;28;20467;-69
2022/01/25 08:16:49;;;;;;;61.93;34.03;;;4.70;99.90;;;;;;5050045;28;20045;-68
2022/01/25 08:19:18;;;;;;;63.40;33.72;;;4.80;99.90;;;;;;5049417;28;20041;-68
2022/01/25 08:21:44;;;;;;;65.03;35.90;;;4.80;99.90;;;;;;5048022;28;20123;-68
2022/01/25 08:24:11;;;;;;;61.25;33.35;;;4.80;99.90;;;;;;5049771;28;20194;-69
2022/01/25 08:26:37;;;;;;;66.40;34.30;;;4.80;99.90;;;;;;5050845;28;20491;-68
2022/01/25 08:29:04;;;;;;;63.63;34.45;;;4.80;99.90;;;;;;5052844;28;20068;-68
2022/01/25 08:31:30;;;;;;;63.58;34.63;;;4.80;99.90;;;;;;5049135;28;20051;-69
2022/01/25 08:33:56;;;;;;;62.83;34.55;;;4.80;99.90;;;;;;5049419;28;20053;-68
2022/01/25 08:36:22;;;;;;;63.92;34.20;;;4.80;99.90;;;;;;5049684;28;20086;-68
2022/01/25 08:38:48;;;;;;;63.97;32.92;;;4.80;99.90;;;;;;5050206;28;20045;-68
2022/01/25 08:41:14;;;;;;;60.38;32.47;;;4.80;99.90;;;;;;5050781;28;20069;-68
2022/01/25 08:43:39;;;;;;;62.03;33.60;;;4.80;99.90;;;;;;5049490;28;20441;-68
2022/01/25 08:46:05;;;;;;;60.22;32.40;;;4.80;99.90;;;;;;5050828;28;20060;-68
2022/01/25 08:48:31;;;;;;;59.60;33.35;;;4.80;99.90;;;;;;5055311;28;20053;-69
2022/01/25 08:50:58;;;;;;;64.40;33.58;;;4.90;99.90;;;;;;5052180;28;20045;-68
2022/01/25 08:53:23;;;;;;;64.80;34.88;;;4.80;99.90;;;;;;5049110;28;20114;-66
2022/01/25 08:55:49;;;;;;;59.80;32.00;;;4.90;99.90;;;;;;5050052;28;20488;-65
2022/01/25 08:58:15;;;;;;;60.33;33.10;;;4.80;99.90;;;;;;5057785;28;20387;-66
2022/01/25 09:00:40;;;;;;;65.20;33.60;;;4.90;99.90;;;;;;5054890;28;20135;-66
2022/01/25 09:03:06;;;;;;;60.47;32.65;;;4.90;99.90;;;;;;5048849;28;20061;-67
2022/01/25 09:05:32;;;;;;;62.72;32.10;;;4.90;99.90;;;;;;5048520;28;20052;-67
2022/01/25 09:07:58;;;;;;;63.90;34.22;;;5.00;99.90;;;;;;5053668;28;20044;-68
2022/01/25 09:10:25;;;;;;;62.30;32.38;;;5.00;99.90;;;;;;5053560;28;20086;-68
2022/01/25 09:12:51;;;;;;;60.50;32.45;;;5.00;99.90;;;;;;5049274;28;20037;-67
2022/01/25 09:15:17;;;;;;;63.67;33.47;;;5.10;99.90;;;;;;5046737;28;20045;-67
2022/01/25 09:17:44;;;;;;;65.30;34.45;;;5.10;99.90;;;;;;5048574;28;20059;-67
2022/01/25 09:20:10;;;;;;;63.30;33.95;;;5.00;99.90;;;;;;5047598;28;20041;-67
2022/01/25 09:22:36;;;;;;;61.95;32.45;;;5.10;99.90;;;;;;5048498;28;20515;-67
2022/01/25 09:25:02;;;;;;;63.47;34.15;;;5.10;99.90;;;;;;5049850;28;20124;-67
2022/01/25 09:27:28;;;;;;;62.13;33.20;;;5.10;99.90;;;;;;5032714;28;20055;-68
2022/01/25 09:29:53;;;;;;;66.60;34.35;;;5.10;99.90;;;;;;5066050;28;20044;-67
2022/01/25 09:32:19;;;;;;;64.55;33.42;;;5.10;99.90;;;;;;5053896;28;20053;-67
2022/01/25 09:34:46;;;;;;;62.85;34.20;;;5.10;99.90;;;;;;5028453;28;20159;-66
2022/01/25 09:37:11;;;;;;;58.83;32.35;;;5.00;99.90;;;;;;5048770;28;20116;-67
2022/01/25 09:39:37;;;;;;;60.53;31.58;;;5.00;99.90;;;;;;5049065;28;20116;-68
2022/01/25 09:42:08;;;;;;;63.20;32.58;;;5.10;99.90;;;;;;5054764;28;20143;-68
2022/01/25 09:44:38;;;;;;;60.35;32.13;;;5.10;99.90;;;;;;5068537;28;20403;-67
2022/01/25 09:47:05;;;;;;;58.42;31.83;;;5.10;99.90;;;;;;5046785;28;20076;-68
2022/01/25 09:49:32;;;;;;;63.85;33.28;;;5.10;99.90;;;;;;5046404;28;20044;-67
2022/01/25 09:52:01;;;;;;;65.13;33.83;;;5.20;99.90;;;;;;5048780;28;20090;-67
2022/01/25 09:54:29;;;;;;;61.15;32.47;;;5.20;99.90;;;;;;5047542;28;20155;-67
2022/01/25 09:56:55;;;;;;;62.47;33.28;;;5.20;99.90;;;;;;5053574;28;20036;-68
2022/01/25 09:59:20;;;;;;;64.57;33.92;;;5.20;99.90;;;;;;5058637;28;20115;-67
2022/01/25 10:01:46;;;;;;;69.25;34.67;;;5.10;99.90;;;;;;5048105;28;20508;-67
2022/01/25 10:04:30;;;;;;;60.65;32.50;;;5.10;99.90;;;;;;5046983;28;20044;-67
2022/01/25 10:06:56;;;;;;;63.67;33.17;;;5.00;99.90;;;;;;5049096;28;20041;-67
2022/01/25 10:09:22;;;;;;;61.53;32.35;;;5.00;99.90;;;;;;5058681;28;20060;-67
2022/01/25 10:11:49;;;;;;;63.72;33.33;;;5.10;99.90;;;;;;5049067;28;20126;-68
2022/01/25 10:14:15;;;;;;;63.95;32.47;;;5.20;99.90;;;;;;5048189;28;20040;-67
2022/01/25 10:16:43;;;;;;;62.38;32.67;;;5.20;99.90;;;;;;5059213;28;20198;-67
2022/01/25 10:19:12;;;;;;;60.83;32.97;;;5.20;99.90;;;;;;5050992;28;20053;-68
2022/01/25 10:21:42;;;;;;;66.90;35.20;;;5.20;99.90;;;;;;5048624;28;20045;-69
2022/01/25 10:24:12;;;;;;;65.15;33.10;;;5.20;99.90;;;;;;5062836;28;20044;-67
2022/01/25 10:26:46;;;;;;;59.78;31.75;;;5.20;99.90;;;;;;5068790;28;20049;-67
2022/01/25 10:29:34;;;;;;;61.45;32.92;;;5.20;99.90;;;;;;5066558;28;20063;-67
2022/01/25 10:32:05;;;;;;;60.80;33.05;;;5.30;99.90;;;;;;5049386;28;20079;-67
2022/01/25 10:34:35;;;;;;;61.25;31.95;;;5.30;99.90;;;;;;5046616;28;20459;-67
2022/01/25 10:37:07;;;;;;;56.88;30.60;;;5.20;99.90;;;;;;5052309;28;20036;-67
2022/01/25 10:39:35;;;;;;;58.95;31.55;;;5.20;99.90;;;;;;5048230;28;20056;-67
2022/01/25 10:42:05;;;;;;;60.50;31.48;;;5.20;99.90;;;;;;5067233;28;20037;-68
2022/01/25 10:44:44;;;;;;;59.63;31.70;;;5.30;99.90;;;;;;5067800;28;20119;-67
2022/01/25 10:47:10;;;;;;;61.33;31.95;;;5.20;99.90;;;;;;5060832;28;20037;-68
2022/01/25 10:49:44;;;;;;;60.90;31.02;;;5.20;99.90;;;;;;5046954;28;20354;-68
2022/01/25 10:52:09;;;;;;;58.37;30.70;;;5.20;99.90;;;;;;5047254;28;20040;-68
2022/01/25 10:54:39;;;;;;;65.70;32.60;;;5.20;99.90;;;;;;5048104;28;20100;-68
2022/01/25 10:57:15;;;;;;;64.50;31.52;;;5.20;99.90;;;;;;5048101;28;20041;-68
2022/01/25 10:59:41;;;;;;;56.25;29.38;;;5.20;99.90;;;;;;5049343;28;20040;-67
2022/01/25 11:02:07;;;;;;;56.13;29.23;;;5.30;99.90;;;;;;5068598;28;20148;-69
2022/01/25 11:04:35;;;;;;;57.08;31.15;;;5.30;99.90;;;;;;5064779;28;20105;-68
2022/01/25 11:07:04;;;;;;;56.97;30.42;;;5.30;99.90;;;;;;5055842;28;20130;-68
2022/01/25 11:09:38;;;;;;;57.13;30.05;;;5.30;99.90;;;;;;5047207;28;20045;-68
2022/01/25 11:12:10;;;;;;;58.67;29.73;;;5.30;99.90;;;;;;5048322;28;20134;-68
2022/01/25 11:14:53;;;;;;;59.05;30.15;;;5.40;99.90;;;;;;5048117;28;20055;-69
2022/01/25 11:17:24;;;;;;;60.30;30.35;;;5.50;99.90;;;;;;5045806;28;20488;-68
2022/01/25 11:19:49;;;;;;;57.63;30.23;;;5.50;99.90;;;;;;5048324;28;20090;-68
2022/01/25 11:22:19;;;;;;;58.90;29.73;;;5.50;99.90;;;;;;5051506;28;20124;-68
2022/01/25 11:24:56;;;;;;;60.72;31.40;;;5.40;99.90;;;;;;5052070;28;20211;-68
2022/01/25 11:27:23;;;;;;;57.50;30.45;;;5.50;99.90;;;;;;5067391;28;20089;-68
2022/01/25 11:29:51;;;;;;;58.00;30.30;;;5.50;99.90;;;;;;5071741;28;20574;-67
2022/01/25 11:32:20;;;;;;;57.42;30.35;;;5.50;99.90;;;;;;5057089;28;20045;-67
2022/01/25 11:34:48;;;;;;;54.72;29.75;;;5.50;99.90;;;;;;5049987;28;20057;-68
2022/01/25 11:37:14;;;;;;;57.38;30.30;;;5.50;99.90;;;;;;5049939;28;20045;-67
2022/01/25 11:39:43;;;;;;;58.47;29.17;;;5.50;99.90;;;;;;5062483;28;20055;-67
2022/01/25 11:42:15;;;;;;;59.20;30.48;;;5.50;99.90;;;;;;5059901;28;20064;-68
2022/01/25 11:44:53;;;;;;;58.38;29.30;;;5.40;99.90;;;;;;5051380;28;20029;-68
2022/01/25 11:47:32;;;;;;;58.00;30.17;;;5.40;99.90;;;;;;5055786;28;20547;-68
2022/01/25 11:50:02;;;;;;;58.70;30.58;;;5.40;99.90;;;;;;5050773;28;20045;-68
2022/01/25 11:52:29;;;;;;;56.55;29.02;;;5.30;99.90;;;;;;5049316;28;20152;-68
2022/01/25 11:55:30;;;;;;;55.58;28.00;;;5.40;99.90;;;;;;5050106;28;20049;-67
2022/01/25 11:58:08;;;;;;;52.78;28.25;;;5.40;99.90;;;;;;5050688;28;20036;-68
2022/01/25 12:00:57;;;;;;;55.28;28.70;;;5.50;99.90;;;;;;5051725;28;20080;-68
2022/01/25 12:03:40;;;;;;;56.30;28.63;;;5.50;99.90;;;;;;5047486;28;20048;-69
2022/01/25 12:06:16;;;;;;;54.28;27.77;;;5.50;99.90;;;;;;5050093;28;20483;-67
2022/01/25 12:09:16;;;;;;;58.28;29.92;;;5.50;99.90;;;;;;5050246;28;20085;-67
2022/01/25 12:11:49;;;;;;;56.45;28.80;;;5.50;99.90;;;;;;5051316;28;20370;-67
2022/01/25 12:14:49;;;;;;;56.45;28.08;;;5.50;99.90;;;;;;5049504;28;20099;-67
2022/01/25 12:17:23;;;;;;;55.10;28.15;;;5.50;99.90;;;;;;5048544;28;20041;-67
2022/01/25 12:19:56;;;;;;;57.55;29.83;;;5.50;99.90;;;;;;5049179;28;20045;-67
2022/01/25 12:22:46;;;;;;;59.10;28.67;;;5.50;99.90;;;;;;5049279;28;20056;-66
2022/01/25 12:25:23;;;;;;;59.25;30.10;;;5.50;99.90;;;;;;5051012;28;20063;-66
2022/01/25 12:28:01;;;;;;;54.47;28.15;;;5.60;99.90;;;;;;5051404;28;20037;-66
2022/01/25 12:30:27;;;;;;;56.42;28.60;;;5.50;99.90;;;;;;5050034;28;20053;-65
2022/01/25 12:33:03;;;;;;;56.38;28.40;;;5.40;99.90;;;;;;5049138;28;20044;-66
2022/01/25 12:36:00;;;;;;;54.70;28.75;;;5.40;99.90;;;;;;5049353;28;20056;-66
2022/01/25 12:38:37;;;;;;;51.78;26.42;;;5.40;99.90;;;;;;5049601;28;20133;-66
2022/01/25 12:41:08;;;;;;;53.95;27.23;;;5.50;99.90;;;;;;5051299;28;20076;-66
2022/01/25 12:43:39;;;;;;;55.00;28.00;;;5.60;99.90;;;;;;5049296;28;20045;-68
2022/01/25 12:46:18;;;;;;;54.55;28.23;;;5.60;99.90;;;;;;5050781;28;20068;-67
2022/01/25 12:48:52;;;;;;;51.83;27.30;;;5.60;99.90;;;;;;5061498;28;20063;-67
2022/01/25 12:51:21;;;;;;;55.53;28.15;;;5.60;99.90;;;;;;5069150;28;20033;-66
2022/01/25 12:53:49;;;;;;;55.38;29.13;;;5.60;99.90;;;;;;5051426;28;20132;-67
2022/01/25 12:56:30;;;;;;;57.17;27.75;;;5.70;99.90;;;;;;5049898;28;20040;-67
2022/01/25 12:59:06;;;;;;;58.88;29.10;;;5.70;99.90;;;;;;5048518;28;20051;-67
2022/01/25 13:01:32;;;;;;;53.85;27.23;;;5.70;99.90;;;;;;5049997;28;20404;-67
2022/01/25 13:04:03;;;;;;;51.25;27.02;;;5.70;99.90;;;;;;5029321;28;20057;-67
2022/01/25 13:06:35;;;;;;;53.67;28.40;;;5.70;99.90;;;;;;5053835;28;20048;-67
2022/01/25 13:12:27;;;;;;;54.72;27.52;;;5.80;99.90;;;;;;5049655;28;20048;-67
2022/01/25 13:17:20;;;;;;;53.65;28.02;;;5.70;99.90;;;;;;5046929;28;20061;-67
2022/01/25 13:19:56;;;;;;;53.97;27.73;;;5.60;99.90;;;;;;5050645;28;20095;-68
2022/01/25 13:22:30;;;;;;;55.08;28.17;;;5.60;99.90;;;;;;5054579;28;20037;-66
2022/01/25 13:25:25;;;;;;;57.22;28.88;;;5.50;99.90;;;;;;5034876;28;20041;-69
2022/01/25 13:27:54;;;;;;;54.83;27.80;;;5.60;99.90;;;;;;5051284;28;20045;-67
2022/01/25 13:30:41;;;;;;;58.15;29.08;;;5.50;99.90;;;;;;5050046;28;20055;-67
2022/01/25 13:33:09;;;;;;;55.78;27.65;;;5.50;99.90;;;;;;5045526;28;20385;-67
2022/01/25 13:35:37;;;;;;;55.08;27.77;;;5.50;99.90;;;;;;5055369;28;20045;-68
2022/01/25 13:38:09;;;;;;;54.72;24.90;;;5.50;99.90;;;;;;5046645;28;20045;-68
2022/01/25 13:40:49;;;;;;;52.97;27.15;;;5.50;99.90;;;;;;5050958;28;20132;-68
2022/01/25 13:46:28;;;;;;;57.50;27.58;;;5.40;99.90;;;;;;5051957;28;20049;-70
2022/01/25 13:49:00;;;;;;;55.30;27.60;;;5.50;99.90;;;;;;5050944;28;20033;-67
2022/01/25 13:51:29;;;;;;;53.17;26.85;;;5.40;99.90;;;;;;5050393;28;20048;-67
2022/01/25 13:53:58;;;;;;;55.83;28.02;;;5.50;99.90;;;;;;5053683;28;20525;-68
2022/01/25 13:56:27;;;;;;;58.75;27.90;;;5.50;99.90;;;;;;5049637;28;20156;-68
2022/01/25 13:58:53;;;;;;;55.63;27.42;;;5.60;99.90;;;;;;5048609;28;20559;-68
2022/01/25 14:01:22;;;;;;;55.63;27.42;;;5.60;99.90;;;;;;5049712;28;20071;-68
2022/01/25 14:03:54;;;;;;;54.10;28.00;;;5.60;99.90;;;;;;5049436;28;20049;-68
2022/01/25 14:06:40;;;;;;;54.65;28.50;;;5.50;99.90;;;;;;5050558;28;20051;-67
2022/01/25 14:09:19;;;;;;;54.67;27.63;;;5.50;99.90;;;;;;5046466;28;20468;-67
2022/01/25 14:25:33;;;;;;;50.13;25.85;;;5.40;99.90;;;;;;5050153;28;20048;-68
2022/01/25 14:28:05;;;;;;;57.10;27.27;;;5.40;99.90;;;;;;5049450;28;20041;-68
2022/01/25 14:30:35;;;;;;;48.53;25.27;;;5.40;99.90;;;;;;5048396;28;20126;-67
2022/01/25 14:33:11;;;;;;;53.00;25.58;;;5.40;99.90;;;;;;5048421;28;20424;-68
2022/01/25 14:36:04;;;;;;;53.50;26.25;;;5.40;99.90;;;;;;5049776;28;20416;-68
2022/01/25 14:38:42;;;;;;;54.92;24.52;;;5.40;99.90;;;;;;5048703;28;20065;-69
2022/01/25 14:41:12;;;;;;;55.67;27.92;;;5.40;99.90;;;;;;5049499;28;20481;-68
2022/01/25 14:43:48;;;;;;;52.78;26.58;;;5.40;99.90;;;;;;5049633;28;20041;-68
2022/01/25 14:46:31;;;;;;;53.50;26.27;;;5.30;99.90;;;;;;5050070;28;20124;-68
2022/01/25 14:49:00;;;;;;;51.03;25.95;;;5.30;99.90;;;;;;5051178;28;20143;-68
2022/01/25 14:51:34;;;;;;;52.38;25.73;;;5.30;99.90;;;;;;5052961;28;20041;-68
2022/01/25 14:54:00;;;;;;;53.10;26.88;;;5.30;99.90;;;;;;5049267;28;20033;-69
2022/01/25 14:56:49;;;;;;;54.30;26.80;;;5.40;99.90;;;;;;5055218;28;20091;-68